Latest Weather Observations for Ivanhoe Airport

IDN60801

Issued at 11:03 pm EDT Tuesday 12 December 2017 (issued every 30 minutes, with the page automatically refreshed every 10 minutes)

About weather observations | Map of weather stations | Latest weather observations for NSW | Other Formats
Station Details ID: 049000 Name: IVANHOE AERODROME AWS Lat: -32.88 Lon: 144.31 Height: 100.0 m
Data from the previous 72 hours. | See also: Recent months at Ivanhoe Airport
Date/Time
EDT
Temp
°C
App
Temp
°C
Dew
Point
°C
Rel
Hum
%
Delta-T
°C
Wind Press
QNH
hPa
Press
MSL
hPa
Rain since
9am
mm
Dir  Spd
km/h
Gust
km/h
Spd
kts
Gust
kts
12/11:00pm 27.0 23.5 3.5 22 11.8 ESE 11 15 6 8 1011.5 1011.0 0.0
12/10:30pm 27.7 23.8 3.4 21 12.2 ESE 13 15 7 8 1011.5 1011.0 0.0
12/10:00pm 28.4 24.9 3.3 20 12.6 ESE 11 13 6 7 1011.5 1011.0 0.0
12/09:30pm 29.3 25.6 2.5 18 13.4 SE 11 13 6 7 1011.4 1010.9 0.0
12/09:00pm 30.4 27.0 1.8 16 14.2 SSE 9 9 5 5 1011.4 1010.9 0.0
12/08:30pm 31.7 27.8 1.0 14 15.1 S 11 13 6 7 1011.3 1010.8 0.0
12/08:00pm 34.1 30.1 0.7 12 16.7 S 11 13 6 7 1011.2 1010.7 0.0
12/07:30pm 35.3 31.3 0.4 11 17.4 S 11 17 6 9 1011.1 1010.6 0.0
12/07:00pm 35.8 31.3 2.0 12 17.4 S 15 22 8 12 1011.0 1010.5 0.0
12/06:30pm 36.1 31.2 2.2 12 17.5 SSW 17 26 9 14 1010.8 1010.3 0.0
12/06:00pm 37.0 32.8 4.0 13 17.7 SSW 15 22 8 12 1010.8 1010.3 0.0
12/05:30pm 36.7 34.2 4.9 14 17.2 S 7 20 4 11 1011.0 1010.5 0.0
12/05:00pm 37.0 32.8 4.0 13 17.7 SSW 15 30 8 16 1011.2 1010.7 0.0
12/04:30pm 37.2 34.0 5.3 14 17.4 SSW 11 26 6 14 1011.3 1010.8 0.0
12/04:00pm 36.7 33.1 4.9 14 17.2 SW 13 22 7 12 1011.6 1011.1 0.0
12/03:30pm 37.3 34.0 6.3 15 17.2 SSW 13 28 7 15 1011.9 1011.4 0.0
12/03:00pm 36.6 32.8 5.8 15 16.9 WSW 15 28 8 15 1012.3 1011.8 0.0
12/02:30pm 36.0 32.7 4.3 14 16.9 N 11 20 6 11 1012.8 1012.3 0.0
12/02:00pm 35.7 32.7 6.0 16 16.3 NNW 11 22 6 12 1013.2 1012.7 0.0
12/01:30pm 34.8 32.2 6.2 17 15.6 W 9 17 5 9 1013.7 1013.2 0.0
12/01:00pm 34.1 31.6 4.7 16 15.6 WSW 7 13 4 7 1013.9 1013.4 0.0
12/12:30pm 34.2 31.9 5.7 17 15.4 NE 7 13 4 7 1014.4 1013.9 0.0
12/12:00pm 33.4 29.7 4.2 16 15.3 S 13 19 7 10 1015.0 1014.5 0.0
12/11:30am 32.6 29.0 5.2 18 14.6 NE 13 24 7 13 1015.2 1014.7 0.0
12/11:00am 32.6 30.4 6.0 19 14.3 ENE 7 13 4 7 1015.5 1015.0 0.0
12/10:30am 32.1 28.8 6.3 20 13.9 E 13 22 7 12 1015.7 1015.2 0.0
12/10:00am 31.3 28.0 6.4 21 13.4 E 13 17 7 9 1015.9 1015.4 0.0
12/09:30am 30.8 27.4 6.0 21 13.2 ESE 13 19 7 10 1016.1 1015.6 0.0
12/09:00am 30.1 26.6 7.3 24 12.4 ESE 15 19 8 10 1016.1 1015.6 0.0
12/08:30am 28.1 25.0 7.4 27 11.1 ESE 13 19 7 10 1016.0 1015.5 0.0
12/08:00am 26.2 24.1 8.2 32 9.7 ESE 9 13 5 7 1015.8 1015.3 0.0
12/07:30am 23.8 21.2 7.8 36 8.5 SE 11 13 6 7 1015.3 1014.8 0.0
12/07:00am 21.9 19.4 8.4 42 7.1 ESE 11 13 6 7 1015.0 1014.5 0.0
12/06:30am 20.2 17.6 7.6 44 6.5 SE 11 13 6 7 1014.8 1014.3 0.0
12/06:00am 19.7 17.3 7.1 44 6.4 SE 9 11 5 6 1014.5 1014.0 0.0
12/05:30am 20.2 17.5 7.2 43 6.7 SE 11 13 6 7 1014.4 1013.9 0.0
12/05:00am 20.3 17.9 7.0 42 6.8 SE 9 11 5 6 1014.3 1013.8 0.0
12/04:30am 20.7 18.3 7.0 41 7.0 SE 9 11 5 6 1014.2 1013.7 0.0
12/04:00am 21.0 18.5 6.5 39 7.4 SE 9 11 5 6 1014.2 1013.7 0.0
12/03:30am 21.5 19.0 6.6 38 7.6 SE 9 13 5 7 1014.2 1013.7 0.0
12/03:00am 21.8 18.9 6.5 37 7.8 SE 11 15 6 8 1014.2 1013.7 0.0
12/02:30am 22.2 19.8 6.8 37 7.9 SSE 9 13 5 7 1014.3 1013.8 0.0
12/02:00am 22.7 19.4 6.5 35 8.3 SSE 13 17 7 9 1014.5 1014.0 0.0
12/01:30am 24.1 21.2 6.4 32 9.1 SSE 11 17 6 9 1015.0 1014.5 0.0
12/01:00am 24.3 21.3 6.1 31 9.4 S 11 15 6 8 1015.2 1014.7 0.0
12/12:30am 25.2 21.8 5.9 29 10.0 S 13 17 7 9 1015.3 1014.8 0.0
12/12:00am 25.5 22.1 5.7 28 10.2 S 13 19 7 10 1015.5 1015.0 0.0
 
Date/Time
EDT
Temp
°C
App
Temp
°C
Dew
Point
°C
Rel
Hum
%
Delta-T
°C
Wind Press
QNH
hPa
Press
MSL
hPa
Rain since
9am
mm
Dir  Spd
km/h
Gust
km/h
Spd
kts
Gust
kts
11/11:30pm 26.0 22.5 5.6 27 10.5 S 13 17 7 9 1015.7 1015.2 0.0
11/11:00pm 26.2 22.3 5.2 26 10.8 S 15 19 8 10 1015.6 1015.1 0.0
11/10:30pm 26.2 22.7 3.5 23 11.3 S 11 15 6 8 1015.7 1015.2 0.0
11/10:00pm 27.5 23.9 3.2 21 12.1 S 11 15 6 8 1015.4 1014.9 0.0
11/09:30pm 28.5 24.6 3.4 20 12.6 S 13 17 7 9 1015.2 1014.7 0.0
11/09:00pm 29.1 25.1 3.1 19 13.1 S 13 17 7 9 1014.9 1014.4 0.0
11/08:30pm 30.2 26.8 4.0 19 13.5 S 11 17 6 9 1014.8 1014.3 0.0
11/08:00pm 32.1 28.1 3.1 16 14.9 S 13 20 7 11 1014.4 1013.9 0.0
11/07:30pm 32.9 28.3 3.8 16 15.2 S 17 24 9 13 1014.3 1013.8 0.0
11/07:00pm 33.5 29.4 4.2 16 15.4 S 15 26 8 14 1014.1 1013.6 0.0
11/06:30pm 33.8 29.2 3.6 15 15.8 S 17 24 9 13 1014.0 1013.5 0.0
11/06:00pm 34.1 30.3 3.8 15 15.9 S 13 26 7 14 1013.9 1013.4 0.0
11/05:30pm 34.0 29.4 3.7 15 15.9 S 17 28 9 15 1014.0 1013.5 0.0
11/05:00pm 34.3 30.3 4.9 16 15.7 S 15 32 8 17 1014.2 1013.7 0.0
11/04:30pm 34.1 29.9 5.6 17 15.4 SSW 17 24 9 13 1014.5 1014.0 0.0
11/04:00pm 34.8 31.6 5.3 16 15.9 SW 11 22 6 12 1014.6 1014.1 0.0
11/03:30pm 34.0 30.3 6.3 18 15.1 SW 15 26 8 14 1015.0 1014.5 0.0
11/03:00pm 34.0 30.3 6.3 18 15.1 SW 15 24 8 13 1015.2 1014.7 0.0
11/02:30pm 33.6 29.5 6.0 18 15.0 S 17 28 9 15 1015.6 1015.1 0.0
11/02:00pm 33.1 29.4 6.4 19 14.5 WSW 15 28 8 15 1016.0 1015.5 0.0
11/01:30pm 33.0 30.8 7.8 21 14.0 ESE 9 15 5 8 1016.5 1015.9 0.0
11/01:00pm 33.2 30.8 8.6 22 13.8 S 11 20 6 11 1016.9 1016.4 0.0
11/12:30pm 32.2 29.7 8.4 23 13.3 NE 11 17 6 9 1017.3 1016.8 0.0
11/12:00pm 31.7 29.2 8.0 23 13.1 ESE 11 15 6 8 1017.7 1017.2 0.0
11/11:30am 30.9 28.7 8.0 24 12.6 ENE 9 17 5 9 1018.1 1017.6 0.0
11/11:00am 30.9 28.9 8.6 25 12.4 ESE 9 17 5 9 1018.4 1017.9 0.0
11/10:30am 30.2 27.8 8.6 26 12.0 ESE 11 22 6 12 1018.5 1018.0 0.0
11/10:00am 29.9 28.1 9.4 28 11.5 ESE 9 19 5 10 1018.7 1018.2 0.0
11/09:30am 28.8 26.1 9.0 29 11.0 SE 13 17 7 9 1018.9 1018.4 0.0
11/09:00am 27.6 25.4 9.4 32 10.1 SE 11 17 6 9 1019.0 1018.5 0.0
11/08:30am 25.9 23.4 9.7 36 9.0 SE 13 17 7 9 1019.1 1018.6 0.0
11/08:00am 23.8 22.1 9.8 41 7.7 SSE 9 13 5 7 1018.9 1018.4 0.0
11/07:30am 22.5 20.5 10.3 46 6.7 SSE 11 15 6 8 1018.6 1018.1 0.0
11/07:00am 20.8 19.5 10.0 50 5.8 SSE 7 11 4 6 1018.3 1017.8 0.0
11/06:30am 18.4 16.6 9.5 56 4.7 SSW 9 13 5 7 1018.1 1017.6 0.0
11/06:00am 18.6 16.6 8.8 53 5.1 S 9 11 5 6 1017.8 1017.3 0.0
11/05:30am 18.5 16.6 9.0 54 5.0 S 9 11 5 6 1017.6 1017.1 0.0
11/05:00am 18.5 16.5 8.7 53 5.1 SSW 9 11 5 6 1017.5 1017.0 0.0
11/04:30am 19.4 17.4 8.7 50 5.6 S 9 13 5 7 1017.1 1016.6 0.0
11/04:00am 19.6 17.6 8.6 49 5.8 SSW 9 11 5 6 1017.2 1016.7 0.0
11/03:30am 20.4 17.9 8.4 46 6.3 S 11 13 6 7 1017.2 1016.7 0.0
11/03:00am 20.9 18.9 8.5 45 6.5 S 9 11 5 6 1017.4 1016.9 0.0
11/02:30am 22.0 19.5 8.2 41 7.3 S 11 15 6 8 1017.5 1017.0 0.0
11/02:00am 22.5 20.0 8.2 40 7.6 S 11 15 6 8 1017.7 1017.2 0.0
11/01:30am 23.2 20.6 7.7 37 8.2 S 11 17 6 9 1018.0 1017.5 0.0
11/01:00am 24.1 20.7 7.7 35 8.7 S 15 19 8 10 1018.3 1017.8 0.0
11/12:30am 24.3 21.0 7.9 35 8.7 S 15 20 8 11 1018.5 1018.0 0.0
11/12:00am 23.7 21.1 7.8 36 8.4 SSW 11 15 6 8 1018.6 1018.1 0.0
 
Date/Time
EDT
Temp
°C
App
Temp
°C
Dew
Point
°C
Rel
Hum
%
Delta-T
°C
Wind Press
QNH
hPa
Press
MSL
hPa
Rain since
9am
mm
Dir  Spd
km/h
Gust
km/h
Spd
kts
Gust
kts
10/11:30pm 23.6 20.6 7.7 36 8.4 SSW 13 15 7 8 1018.6 1018.1 0.0
10/11:00pm 23.7 21.1 7.8 36 8.4 SSW 11 13 6 7 1018.6 1018.1 0.0
10/10:30pm 24.5 21.9 7.6 34 8.9 SSW 11 15 6 8 1018.7 1018.2 0.0
10/10:00pm 25.1 22.4 7.3 32 9.4 SSW 11 13 6 7 1018.6 1018.1 0.0
10/09:30pm 26.0 23.2 7.1 30 10.0 SSW 11 15 6 8 1018.3 1017.8 0.0
10/09:00pm 27.0 24.2 6.9 28 10.6 SSW 11 15 6 8 1018.1 1017.6 0.0
10/08:30pm 27.9 25.0 6.6 26 11.3 SSW 11 15 6 8 1017.9 1017.4 0.0
10/08:00pm 29.5 25.4 6.2 23 12.4 S 17 22 9 12 1017.7 1017.2 0.0
10/07:30pm 30.3 26.7 6.9 23 12.6 SSW 15 20 8 11 1017.5 1017.0 0.0
10/07:00pm 30.8 26.8 6.6 22 13.0 SSW 17 24 9 13 1017.4 1016.9 0.0
10/06:30pm 30.9 27.1 6.0 21 13.3 S 15 26 8 14 1017.2 1016.7 0.0
10/06:00pm 31.4 27.4 6.5 21 13.4 SSW 17 24 9 13 1017.3 1016.8 0.0
10/05:30pm 31.6 27.6 6.6 21 13.5 S 17 26 9 14 1017.5 1017.0 0.0
10/05:00pm 31.3 27.4 7.1 22 13.2 SSE 17 26 9 14 1017.6 1017.1 0.0
10/04:30pm 31.0 27.0 6.8 22 13.1 S 17 26 9 14 1017.8 1017.3 0.0
10/04:00pm 31.7 29.5 8.0 23 13.1 SW 9 20 5 11 1018.0 1017.5 0.0
10/03:30pm 31.3 27.4 7.1 22 13.2 WSW 17 28 9 15 1018.3 1017.8 0.0
10/03:00pm 30.7 28.1 7.8 24 12.6 WSW 11 24 6 13 1018.7 1018.2 0.0
10/02:30pm 30.6 27.7 8.3 25 12.3 SSW 13 20 7 11 1019.2 1018.7 0.0
10/02:00pm 30.1 28.6 8.5 26 11.9 SSW 6 13 3 7 1019.5 1019.0 0.0
10/01:30pm 29.5 27.3 8.0 26 11.8 SE 9 17 5 9 1019.9 1019.4 0.0
10/01:00pm 29.0 26.6 8.7 28 11.2 S 11 17 6 9 1020.4 1019.9 0.0
10/12:30pm 28.7 26.8 8.9 29 11.0 SW 9 22 5 12 1020.7 1020.2 0.0
10/12:00pm 28.3 26.0 9.1 30 10.6 SW 11 20 6 11 1021.1 1020.6 0.0
10/11:30am 27.7 25.7 8.6 30 10.5 SSE 9 19 5 10 1021.4 1020.9 0.0
10/11:00am 27.4 25.6 9.3 32 10.0 SSE 9 17 5 9 1021.6 1021.1 0.0
10/10:30am 27.1 24.9 9.5 33 9.8 SSE 11 19 6 10 1021.9 1021.4 0.0
10/10:00am 26.0 24.4 10.2 37 8.8 SSE 9 17 5 9 1021.9 1021.4 0.0
10/09:30am 24.9 23.5 10.8 41 7.9 S 9 13 5 7 1022.0 1021.5 0.0
10/09:00am 23.3 21.4 10.4 44 7.1 SSW 11 17 6 9 1022.0 1021.5 0.0
10/08:30am 22.0 19.7 10.5 48 6.3 SSW 13 15 7 8 1021.9 1021.4 0.0
10/08:00am 21.1 18.7 10.0 49 6.0 SSW 13 17 7 9 1021.6 1021.1 0.0
10/07:30am 20.3 18.3 10.1 52 5.5 SSE 11 13 6 7 1021.1 1020.6 0.0
10/07:00am 18.2 16.6 10.1 59 4.3 SSW 9 11 5 6 1020.6 1020.1 0.0
10/06:30am 16.4 14.6 9.6 64 3.6 SSW 9 11 5 6 1020.3 1019.8 0.0
10/06:00am 15.7 13.9 9.4 66 3.3 SSW 9 11 5 6 1019.8 1019.3 0.0
10/05:30am 16.4 14.9 9.3 63 3.7 SSW 7 9 4 5 1019.5 1019.0 0.0
10/05:00am 16.7 14.8 8.9 60 4.0 S 9 11 5 6 1019.3 1018.8 0.0
10/04:30am 17.5 15.6 8.9 57 4.5 SSE 9 11 5 6 1019.3 1018.8 0.0
10/04:00am 18.1 15.8 8.9 55 4.8 SSE 11 13 6 7 1019.3 1018.8 0.0
10/03:30am 18.0 16.1 9.1 56 4.7 S 9 11 5 6 1019.3 1018.8 0.0
10/03:00am 18.2 16.3 9.0 55 4.8 S 9 11 5 6 1019.4 1018.9 0.0
10/02:30am 18.1 16.2 9.2 56 4.7 S 9 11 5 6 1019.5 1019.0 0.0
10/02:00am 18.7 16.5 9.2 54 5.0 S 11 13 6 7 1019.5 1019.0 0.0
10/01:30am 18.4 16.5 9.2 55 4.8 SSW 9 11 5 6 1019.6 1019.1 0.0
10/01:00am 18.8 17.2 8.7 52 5.3 S 7 9 4 5 1019.8 1019.3 0.0
10/12:30am 19.2 17.5 8.2 49 5.7 S 7 9 4 5 1020.0 1019.5 0.0
10/12:00am 20.1 18.0 8.1 46 6.2 S 9 11 5 6 1020.3 1019.8 0.0
 
Date/Time
EDT
Temp
°C
App
Temp
°C
Dew
Point
°C
Rel
Hum
%
Delta-T
°C
Wind Press
QNH
hPa
Press
MSL
hPa
Rain since
9am
mm
Dir  Spd
km/h
Gust
km/h
Spd
kts
Gust
kts
09/11:30pm 20.6 18.4 7.9 44 6.6 S 9 11 5 6 1020.4 1019.9 0.0

Other Formats:

Comma delimited format used in spreadsheet applications
http://www.bom.gov.au/fwo/IDN60801/IDN60801.95697.axf

JavaScript Object Notation format (JSON) in row-major order
http://www.bom.gov.au/fwo/IDN60801/IDN60801.95697.json